Time;durP1;ratioP1;P1;durP2;ratioP2;P2;SDS_P1;SDS_P2;PMS_P1;PMS_P2;Temp;Humidity;BMP_temperature;BMP_pressure;BME280_temperature;BME280_humidity;BME280_pressure;Samples;Min_cycle;Max_cycle;Signal;HPM_P1;HPM_P2
2022/03/12 00:00:30;;;;;;;75.22;50.00;;;;;;;;;;5013195;28;20262;-62
2022/03/12 00:02:56;;;;;;;90.60;52.58;;;;;;;;;;5013165;28;20194;-62
2022/03/12 00:05:23;;;;;;;70.72;48.72;;;;;;;;;;5013483;28;20163;-62
2022/03/12 00:07:51;;;;;;;91.80;52.75;;;;;;;;;;5013248;28;20164;-61
2022/03/12 00:10:18;;;;;;;95.22;60.22;;;;;;;;;;5013060;28;20194;-62
2022/03/12 00:12:44;;;;;;;87.45;51.63;;;;;;;;;;5013191;28;20182;-62
2022/03/12 00:15:11;;;;;;;74.57;50.00;;;;;;;;;;5013131;28;20639;-62
2022/03/12 00:17:39;;;;;;;64.03;46.88;;;;;;;;;;5013129;28;20262;-62
2022/03/12 00:20:10;;;;;;;56.25;46.22;;;;;;;;;;5013040;28;20201;-63
2022/03/12 00:22:41;;;;;;;59.30;47.65;;;;;;;;;;5012290;28;20179;-62
2022/03/12 00:25:11;;;;;;;49.22;43.60;;;;;;;;;;5012725;28;20203;-62
2022/03/12 00:27:41;;;;;;;53.88;45.42;;;;;;;;;;5013120;28;20179;-62
2022/03/12 00:30:07;;;;;;;43.35;39.22;;;;;;;;;;5012808;28;20182;-62
2022/03/12 00:32:36;;;;;;;43.88;39.72;;;;;;;;;;5012870;28;20261;-63
2022/03/12 00:35:06;;;;;;;42.88;39.08;;;;;;;;;;5012824;28;20181;-62
2022/03/12 00:37:32;;;;;;;60.03;47.65;;;;;;;;;;5012918;28;20190;-63
2022/03/12 00:39:58;;;;;;;73.53;49.37;;;;;;;;;;5012795;28;20178;-63
2022/03/12 00:42:24;;;;;;;73.22;49.20;;;;;;;;;;5012440;28;20758;-62
2022/03/12 00:44:50;;;;;;;76.27;50.73;;;;;;;;;;5012528;28;20261;-62
2022/03/12 00:47:15;;;;;;;86.80;51.10;;;;;;;;;;5012559;28;20478;-62
2022/03/12 00:49:43;;;;;;;93.67;52.03;;;;;;;;;;5012485;28;20501;-62
2022/03/12 00:52:09;;;;;;;85.07;51.47;;;;;;;;;;5012454;28;20424;-62
2022/03/12 00:54:36;;;;;;;87.27;54.97;;;;;;;;;;5012403;28;20200;-59
2022/03/12 00:57:02;;;;;;;80.85;51.88;;;;;;;;;;5012515;28;20432;-61
2022/03/12 00:59:28;;;;;;;88.65;53.67;;;;;;;;;;5012488;28;20210;-63
2022/03/12 01:01:54;;;;;;;76.60;51.20;;;;;;;;;;5012204;28;20174;-63
2022/03/12 01:04:20;;;;;;;80.23;51.77;;;;;;;;;;5012374;28;20473;-62
2022/03/12 01:06:46;;;;;;;53.70;46.60;;;;;;;;;;5012311;28;20414;-61
2022/03/12 01:09:13;;;;;;;68.22;49.88;;;;;;;;;;5012432;28;20405;-62
2022/03/12 01:11:40;;;;;;;78.28;52.08;;;;;;;;;;5011970;28;20198;-62
2022/03/12 01:14:07;;;;;;;64.05;50.28;;;;;;;;;;5012133;28;20274;-62
2022/03/12 01:16:33;;;;;;;87.35;54.25;;;;;;;;;;5012456;28;20536;-64
2022/03/12 01:18:59;;;;;;;85.65;51.78;;;;;;;;;;5012520;28;20195;-61
2022/03/12 01:21:26;;;;;;;63.90;48.60;;;;;;;;;;5012206;28;20184;-61
2022/03/12 01:23:52;;;;;;;84.60;52.65;;;;;;;;;;5012558;28;20465;-63
2022/03/12 01:26:19;;;;;;;85.97;53.25;;;;;;;;;;5012436;28;20676;-63
2022/03/12 01:28:45;;;;;;;83.72;52.33;;;;;;;;;;5012462;28;20680;-61
2022/03/12 01:31:11;;;;;;;79.07;50.75;;;;;;;;;;5011845;28;20178;-61
2022/03/12 01:33:37;;;;;;;83.63;50.83;;;;;;;;;;5011981;28;20199;-63
2022/03/12 01:36:04;;;;;;;88.10;53.00;;;;;;;;;;5011742;28;20215;-62
2022/03/12 01:38:33;;;;;;;83.65;52.38;;;;;;;;;;5011782;28;20413;-62
2022/03/12 01:41:05;;;;;;;85.38;53.28;;;;;;;;;;5011568;28;20652;-62
2022/03/12 01:43:31;;;;;;;84.20;51.83;;;;;;;;;;5011796;28;20630;-62
2022/03/12 01:46:02;;;;;;;70.15;50.35;;;;;;;;;;5012309;28;20275;-61
2022/03/12 01:48:29;;;;;;;68.78;49.42;;;;;;;;;;5011885;28;20230;-61
2022/03/12 01:50:55;;;;;;;65.68;47.85;;;;;;;;;;5011629;28;20175;-62
2022/03/12 01:53:24;;;;;;;67.43;49.22;;;;;;;;;;5011985;28;20231;-61
2022/03/12 01:55:51;;;;;;;53.30;46.28;;;;;;;;;;5011489;28;20178;-62
2022/03/12 01:58:17;;;;;;;55.90;46.80;;;;;;;;;;5011918;28;20180;-62
2022/03/12 02:00:44;;;;;;;48.60;43.28;;;;;;;;;;5011640;28;20195;-63
2022/03/12 02:03:11;;;;;;;58.20;47.75;;;;;;;;;;5011554;28;20298;-61
2022/03/12 02:05:37;;;;;;;53.95;46.38;;;;;;;;;;5011763;28;20207;-62
2022/03/12 02:08:03;;;;;;;74.20;51.83;;;;;;;;;;5011933;28;20194;-64
2022/03/12 02:10:30;;;;;;;62.50;45.90;;;;;;;;;;5011476;28;20167;-63
2022/03/12 02:12:56;;;;;;;70.15;48.90;;;;;;;;;;5011735;28;20195;-62
2022/03/12 02:15:22;;;;;;;76.72;52.42;;;;;;;;;;5011359;28;20169;-62
2022/03/12 02:17:50;;;;;;;71.10;49.65;;;;;;;;;;5011800;28;20179;-64
2022/03/12 02:20:17;;;;;;;68.85;50.50;;;;;;;;;;5011403;28;20193;-61
2022/03/12 02:22:45;;;;;;;51.55;44.58;;;;;;;;;;5011694;28;20531;-63
2022/03/12 02:25:11;;;;;;;51.97;46.28;;;;;;;;;;5011376;28;20200;-62
2022/03/12 02:27:37;;;;;;;58.90;46.97;;;;;;;;;;5011518;28;20234;-60
2022/03/12 02:30:07;;;;;;;51.28;45.13;;;;;;;;;;5011425;28;20580;-62
2022/03/12 02:32:33;;;;;;;57.53;45.53;;;;;;;;;;5011753;28;20187;-63
2022/03/12 02:35:00;;;;;;;63.90;47.77;;;;;;;;;;5011622;28;20523;-63
2022/03/12 02:37:30;;;;;;;85.70;52.88;;;;;;;;;;5011582;28;20424;-62
2022/03/12 02:40:01;;;;;;;60.15;46.17;;;;;;;;;;5011155;28;20669;-63
2022/03/12 02:42:31;;;;;;;63.80;47.78;;;;;;;;;;5011102;28;20207;-63
2022/03/12 02:44:59;;;;;;;80.35;50.13;;;;;;;;;;5011171;28;20204;-63
2022/03/12 02:47:31;;;;;;;28.85;27.05;;;;;;;;;;5013675;28;20303;-62
2022/03/12 02:50:03;;;;;;;19.30;18.48;;;;;;;;;;5015203;28;20185;-63
2022/03/12 02:52:29;;;;;;;69.43;46.17;;;;;;;;;;5014392;28;20590;-63
2022/03/12 02:54:57;;;;;;;90.60;51.95;;;;;;;;;;5014661;28;20258;-61
2022/03/12 02:57:26;;;;;;;88.07;51.03;;;;;;;;;;4997456;28;20181;-62
2022/03/12 02:59:53;;;;;;;79.35;51.38;;;;;;;;;;5014633;28;20183;-61
2022/03/12 03:02:39;;;;;;;67.38;49.38;;;;;;;;;;5014520;28;20269;-63
2022/03/12 03:05:13;;;;;;;75.22;48.13;;;;;;;;;;5015068;28;20217;-62
2022/03/12 03:07:45;;;;;;;79.30;50.42;;;;;;;;;;5014753;28;20248;-62
2022/03/12 03:10:11;;;;;;;93.10;52.95;;;;;;;;;;5014404;28;20276;-63
2022/03/12 03:12:37;;;;;;;88.50;52.38;;;;;;;;;;5014412;28;20171;-62
2022/03/12 03:15:04;;;;;;;99.22;53.53;;;;;;;;;;5014332;28;20175;-61
2022/03/12 03:17:30;;;;;;;92.90;52.55;;;;;;;;;;5014273;28;20202;-63
2022/03/12 03:19:56;;;;;;;89.50;50.93;;;;;;;;;;5014223;28;20679;-61
2022/03/12 03:22:22;;;;;;;91.27;50.67;;;;;;;;;;5014202;28;20425;-60
2022/03/12 03:24:48;;;;;;;98.63;53.88;;;;;;;;;;5013930;28;20460;-61
2022/03/12 03:27:14;;;;;;;86.45;52.70;;;;;;;;;;5014016;28;20174;-61
2022/03/12 03:29:40;;;;;;;90.82;52.83;;;;;;;;;;5013889;28;20178;-62
2022/03/12 03:32:06;;;;;;;82.17;49.63;;;;;;;;;;5013755;28;20520;-61
2022/03/12 03:34:32;;;;;;;100.78;53.28;;;;;;;;;;5013845;28;20430;-61
2022/03/12 03:36:58;;;;;;;96.18;51.47;;;;;;;;;;5014011;28;20175;-61
2022/03/12 03:39:25;;;;;;;88.68;48.17;;;;;;;;;;5014021;28;20182;-62
2022/03/12 03:41:51;;;;;;;81.95;49.17;;;;;;;;;;5013823;28;20179;-63
2022/03/12 03:44:37;;;;;;;97.20;50.70;;;;;;;;;;5013850;28;20570;-63
2022/03/12 03:47:03;;;;;;;93.38;51.75;;;;;;;;;;5013823;28;20191;-61
2022/03/12 03:49:29;;;;;;;104.40;52.92;;;;;;;;;;5013780;28;20222;-61
2022/03/12 03:51:58;;;;;;;97.93;51.88;;;;;;;;;;5013457;28;20253;-62
2022/03/12 03:54:25;;;;;;;101.32;54.03;;;;;;;;;;5013619;28;20190;-62
2022/03/12 03:56:51;;;;;;;85.05;49.92;;;;;;;;;;5013305;28;20186;-61
2022/03/12 03:59:17;;;;;;;92.90;52.20;;;;;;;;;;5013458;28;20283;-61
2022/03/12 04:01:44;;;;;;;91.40;51.47;;;;;;;;;;5013371;28;20205;-61
2022/03/12 04:04:13;;;;;;;90.88;50.00;;;;;;;;;;5036665;22;20493;-57
2022/03/12 04:06:40;;;;;;;98.47;51.75;;;;;;;;;;5013314;28;20174;-58
2022/03/12 04:09:07;;;;;;;77.05;48.92;;;;;;;;;;5013171;28;20524;-59
2022/03/12 04:11:34;;;;;;;78.50;49.17;;;;;;;;;;5012992;28;20222;-59
2022/03/12 04:14:00;;;;;;;76.78;47.80;;;;;;;;;;5013293;28;20194;-59
2022/03/12 04:16:27;;;;;;;77.65;48.45;;;;;;;;;;5013043;28;20191;-60
2022/03/12 04:18:55;;;;;;;78.93;47.65;;;;;;;;;;5013117;28;20174;-59
2022/03/12 04:21:21;;;;;;;42.28;37.95;;;;;;;;;;5012851;28;20218;-59
2022/03/12 04:23:49;;;;;;;49.40;39.97;;;;;;;;;;5012822;28;20757;-59
2022/03/12 04:26:15;;;;;;;75.00;47.35;;;;;;;;;;5013314;28;20637;-59
2022/03/12 04:28:41;;;;;;;67.35;46.15;;;;;;;;;;5012931;28;20167;-58
2022/03/12 04:31:08;;;;;;;69.93;45.30;;;;;;;;;;5012771;28;20273;-59
2022/03/12 04:33:34;;;;;;;75.90;47.05;;;;;;;;;;5012761;28;20345;-59
2022/03/12 04:36:01;;;;;;;86.20;49.80;;;;;;;;;;5012881;28;20166;-59
2022/03/12 04:38:27;;;;;;;91.35;50.17;;;;;;;;;;5012550;28;20326;-57
2022/03/12 04:40:56;;;;;;;89.65;49.95;;;;;;;;;;5012398;28;20183;-58
2022/03/12 04:43:26;;;;;;;36.70;33.50;;;;;;;;;;5012636;28;20210;-59
2022/03/12 04:45:52;;;;;;;86.97;51.92;;;;;;;;;;5012569;28;20658;-59
2022/03/12 04:48:20;;;;;;;64.05;45.35;;;;;;;;;;5012518;28;20171;-59
2022/03/12 04:50:46;;;;;;;61.97;44.67;;;;;;;;;;5012305;28;20179;-58
2022/03/12 04:53:12;;;;;;;55.33;44.17;;;;;;;;;;5012320;28;20183;-59
2022/03/12 04:55:39;;;;;;;59.77;44.30;;;;;;;;;;5012345;28;20450;-60
2022/03/12 04:58:05;;;;;;;60.58;45.17;;;;;;;;;;5012469;28;20414;-59
2022/03/12 05:00:36;;;;;;;84.15;50.72;;;;;;;;;;5012097;28;20301;-59
2022/03/12 05:03:03;;;;;;;66.55;46.25;;;;;;;;;;5012297;28;20179;-58
2022/03/12 05:05:30;;;;;;;65.47;44.97;;;;;;;;;;5012230;28;20201;-59
2022/03/12 05:07:58;;;;;;;72.32;48.10;;;;;;;;;;5011985;28;20182;-59
2022/03/12 05:10:27;;;;;;;68.07;49.85;;;;;;;;;;5011410;28;20320;-59
2022/03/12 05:12:58;;;;;;;46.78;41.85;;;;;;;;;;5012123;28;20170;-59
2022/03/12 05:15:24;;;;;;;59.35;47.78;;;;;;;;;;5012193;28;20731;-59
2022/03/12 05:17:51;;;;;;;53.28;42.90;;;;;;;;;;5012123;28;20207;-59
2022/03/12 05:20:20;;;;;;;83.95;55.53;;;;;;;;;;5011784;28;20662;-59
2022/03/12 05:22:46;;;;;;;82.18;50.50;;;;;;;;;;5012066;28;20625;-58
2022/03/12 05:25:13;;;;;;;84.78;49.58;;;;;;;;;;5011883;28;20290;-59
2022/03/12 05:27:39;;;;;;;75.35;46.65;;;;;;;;;;5012033;28;20167;-59
2022/03/12 05:30:05;;;;;;;84.07;49.93;;;;;;;;;;5011902;28;20263;-59
2022/03/12 05:32:31;;;;;;;80.00;48.72;;;;;;;;;;5011821;28;20410;-58
2022/03/12 05:34:57;;;;;;;70.57;48.38;;;;;;;;;;5011678;28;20234;-59
2022/03/12 05:37:23;;;;;;;90.03;51.00;;;;;;;;;;5011871;28;20221;-59
2022/03/12 05:39:51;;;;;;;82.70;49.80;;;;;;;;;;5011999;28;20414;-60
2022/03/12 05:42:20;;;;;;;87.18;49.13;;;;;;;;;;5011750;28;20832;-59
2022/03/12 05:44:46;;;;;;;80.00;48.30;;;;;;;;;;5011690;28;20267;-59
2022/03/12 05:47:12;;;;;;;83.10;48.35;;;;;;;;;;5011688;28;20179;-58
2022/03/12 05:49:38;;;;;;;78.60;48.35;;;;;;;;;;5011682;28;20166;-59
2022/03/12 05:52:04;;;;;;;74.10;48.30;;;;;;;;;;5011386;28;20182;-59
2022/03/12 05:54:30;;;;;;;71.28;46.72;;;;;;;;;;5011725;28;20444;-59
2022/03/12 05:56:56;;;;;;;61.97;45.20;;;;;;;;;;5011651;28;20177;-59
2022/03/12 05:59:22;;;;;;;73.70;47.17;;;;;;;;;;5011884;28;20836;-59
2022/03/12 06:01:50;;;;;;;65.35;44.92;;;;;;;;;;5011342;28;20176;-60
2022/03/12 06:04:25;;;;;;;51.90;40.97;;;;;;;;;;5011412;28;20511;-59
2022/03/12 06:06:52;;;;;;;74.93;46.72;;;;;;;;;;5011801;28;20249;-59
2022/03/12 06:09:18;;;;;;;45.22;40.03;;;;;;;;;;5011516;28;20176;-59
2022/03/12 06:11:44;;;;;;;69.60;46.33;;;;;;;;;;5011455;28;20180;-59
2022/03/12 06:14:16;;;;;;;74.65;47.88;;;;;;;;;;5012166;28;20245;-58
2022/03/12 06:16:47;;;;;;;84.30;49.63;;;;;;;;;;5011506;28;20187;-59
2022/03/12 06:19:13;;;;;;;88.47;49.42;;;;;;;;;;5011675;28;20193;-59
2022/03/12 06:21:39;;;;;;;75.97;47.90;;;;;;;;;;5014014;28;20182;-58
2022/03/12 06:24:05;;;;;;;71.20;45.78;;;;;;;;;;5014265;28;20824;-57
2022/03/12 06:26:36;;;;;;;83.90;50.25;;;;;;;;;;5015240;28;20643;-58
2022/03/12 06:29:03;;;;;;;84.47;50.45;;;;;;;;;;5015172;28;20206;-60
2022/03/12 06:31:31;;;;;;;83.38;50.30;;;;;;;;;;5014931;28;20231;-59
2022/03/12 06:33:57;;;;;;;100.75;52.30;;;;;;;;;;5015257;28;20227;-59
2022/03/12 06:36:24;;;;;;;101.57;53.30;;;;;;;;;;5015186;28;20178;-59
2022/03/12 06:38:50;;;;;;;91.32;49.60;;;;;;;;;;5015013;28;20177;-59
2022/03/12 06:41:20;;;;;;;87.13;50.75;;;;;;;;;;5014783;28;20265;-58
2022/03/12 06:43:46;;;;;;;101.35;55.33;;;;;;;;;;5014711;28;20210;-58
2022/03/12 06:46:15;;;;;;;100.10;54.85;;;;;;;;;;5015219;28;20180;-59
2022/03/12 06:48:42;;;;;;;84.30;50.85;;;;;;;;;;5014988;28;20186;-59
2022/03/12 06:51:10;;;;;;;97.57;53.33;;;;;;;;;;5014548;28;20166;-59
2022/03/12 06:53:36;;;;;;;97.03;53.67;;;;;;;;;;5014760;28;20249;-60
2022/03/12 06:56:02;;;;;;;91.45;53.75;;;;;;;;;;5014664;28;20175;-59
2022/03/12 06:58:29;;;;;;;86.72;52.20;;;;;;;;;;5014803;28;20184;-59
2022/03/12 07:00:55;;;;;;;88.00;53.40;;;;;;;;;;5013796;28;20584;-59
2022/03/12 07:03:21;;;;;;;86.85;50.47;;;;;;;;;;5014013;28;20305;-59
2022/03/12 07:05:47;;;;;;;73.73;50.30;;;;;;;;;;5014857;28;20259;-59
2022/03/12 07:08:13;;;;;;;97.95;55.80;;;;;;;;;;5014709;28;20399;-59
2022/03/12 07:10:39;;;;;;;106.30;56.17;;;;;;;;;;5014162;28;20174;-59
2022/03/12 07:13:05;;;;;;;100.75;56.58;;;;;;;;;;5019589;28;20417;-58
2022/03/12 07:15:32;;;;;;;106.93;56.40;;;;;;;;;;5033957;28;20170;-60
2022/03/12 07:17:58;;;;;;;99.35;55.45;;;;;;;;;;5034300;28;20285;-60
2022/03/12 07:20:23;;;;;;;99.30;57.85;;;;;;;;;;5034056;28;20177;-59
2022/03/12 07:22:49;;;;;;;89.80;52.77;;;;;;;;;;5034042;28;20171;-60
2022/03/12 07:25:16;;;;;;;101.07;56.00;;;;;;;;;;5033144;28;20474;-59
2022/03/12 07:27:42;;;;;;;79.35;50.58;;;;;;;;;;5033943;28;20418;-59
2022/03/12 07:30:09;;;;;;;96.35;54.28;;;;;;;;;;5033720;28;20261;-59
2022/03/12 07:32:35;;;;;;;99.13;55.67;;;;;;;;;;5033284;28;20181;-59
2022/03/12 07:35:02;;;;;;;62.70;48.67;;;;;;;;;;5033271;28;20200;-59
2022/03/12 07:37:27;;;;;;;77.55;52.67;;;;;;;;;;5033574;28;20203;-60
2022/03/12 07:39:54;;;;;;;97.90;58.53;;;;;;;;;;5033535;28;20652;-60
2022/03/12 07:42:20;;;;;;;101.28;57.97;;;;;;;;;;5033465;28;20406;-59
2022/03/12 07:44:46;;;;;;;103.57;58.30;;;;;;;;;;5033308;28;20211;-60
2022/03/12 07:47:12;;;;;;;105.87;57.60;;;;;;;;;;5033052;28;20409;-60
2022/03/12 07:49:38;;;;;;;103.90;58.97;;;;;;;;;;5033444;28;20402;-59
2022/03/12 07:52:06;;;;;;;94.60;58.55;;;;;;;;;;5033176;28;20184;-60
2022/03/12 07:54:32;;;;;;;109.95;63.13;;;;;;;;;;5033038;28;20610;-60
2022/03/12 07:56:58;;;;;;;113.68;64.97;;;;;;;;;;5033045;28;20188;-59
2022/03/12 07:59:26;;;;;;;116.30;61.93;;;;;;;;;;5032976;28;20266;-61
2022/03/12 08:01:52;;;;;;;121.45;65.70;;;;;;;;;;5033225;28;20422;-60
2022/03/12 08:04:18;;;;;;;95.20;62.50;;;;;;;;;;5033049;28;20212;-61
2022/03/12 08:06:44;;;;;;;117.60;67.33;;;;;;;;;;5033529;28;20192;-61
2022/03/12 08:09:10;;;;;;;119.67;67.73;;;;;;;;;;5032713;28;20410;-61
2022/03/12 08:11:36;;;;;;;101.53;63.58;;;;;;;;;;5018007;28;20416;-61
2022/03/12 08:14:06;;;;;;;102.68;70.57;;;;;;;;;;5012655;28;20206;-61
2022/03/12 08:16:33;;;;;;;125.15;72.75;;;;;;;;;;5013337;28;20174;-61
2022/03/12 08:19:00;;;;;;;120.15;73.45;;;;;;;;;;5013093;28;20173;-59
2022/03/12 08:21:26;;;;;;;97.32;70.45;;;;;;;;;;5012657;28;20186;-61
2022/03/12 08:23:53;;;;;;;88.20;72.85;;;;;;;;;;5013134;28;20201;-59
2022/03/12 08:26:19;;;;;;;107.07;77.55;;;;;;;;;;5012854;28;20535;-61
2022/03/12 08:28:46;;;;;;;91.05;74.65;;;;;;;;;;5013107;28;20576;-61
2022/03/12 08:31:12;;;;;;;95.45;78.03;;;;;;;;;;5012318;28;20228;-61
2022/03/12 08:33:38;;;;;;;73.00;66.20;;;;;;;;;;5012914;28;20193;-61
2022/03/12 08:36:07;;;;;;;87.95;76.85;;;;;;;;;;5013066;28;20633;-60
2022/03/12 08:38:37;;;;;;;116.15;87.63;;;;;;;;;;5012996;28;20189;-61
2022/03/12 08:41:06;;;;;;;111.88;85.20;;;;;;;;;;5012692;28;20170;-61
2022/03/12 08:43:33;;;;;;;120.93;91.25;;;;;;;;;;5011815;28;20720;-60
2022/03/12 08:46:00;;;;;;;123.15;96.53;;;;;;;;;;5012629;28;20277;-61
2022/03/12 08:48:26;;;;;;;115.93;100.15;;;;;;;;;;5012807;28;20197;-61
2022/03/12 08:50:52;;;;;;;115.80;100.90;;;;;;;;;;5012540;28;20177;-59
2022/03/12 08:53:20;;;;;;;130.63;112.05;;;;;;;;;;5012418;28;20568;-62
2022/03/12 08:55:46;;;;;;;132.45;116.38;;;;;;;;;;5012907;28;20189;-61
2022/03/12 08:58:12;;;;;;;143.90;123.03;;;;;;;;;;5012874;28;20545;-58
2022/03/12 09:00:38;;;;;;;148.50;130.00;;;;;;;;;;5012342;28;20904;-58
2022/03/12 09:03:05;;;;;;;153.87;139.50;;;;;;;;;;5012520;28;20405;-59
2022/03/12 09:05:31;;;;;;;169.63;154.13;;;;;;;;;;5012364;28;20483;-60
2022/03/12 09:07:57;;;;;;;191.17;175.37;;;;;;;;;;5012828;28;20638;-60
2022/03/12 09:10:24;;;;;;;229.77;213.70;;;;;;;;;;5012211;28;20426;-60
2022/03/12 09:12:50;;;;;;;265.88;245.75;;;;;;;;;;5012764;28;20828;-58
2022/03/12 09:15:20;;;;;;;296.90;275.27;;;;;;;;;;5012151;28;20288;-60
2022/03/12 09:17:46;;;;;;;309.47;290.07;;;;;;;;;;5012278;28;20416;-60
2022/03/12 09:20:12;;;;;;;348.13;326.93;;;;;;;;;;5012153;28;20900;-61
2022/03/12 09:22:38;;;;;;;352.50;333.90;;;;;;;;;;5012172;28;20482;-60
2022/03/12 09:25:08;;;;;;;371.87;351.87;;;;;;;;;;5011798;28;20467;-60
2022/03/12 09:27:34;;;;;;;404.70;382.53;;;;;;;;;;5012234;28;20963;-60
2022/03/12 09:30:01;;;;;;;437.10;414.17;;;;;;;;;;5012288;28;20496;-60
2022/03/12 09:32:27;;;;;;;480.87;456.57;;;;;;;;;;5012100;28;20492;-60
2022/03/12 09:34:53;;;;;;;495.10;471.40;;;;;;;;;;5012046;28;20458;-60
2022/03/12 09:37:19;;;;;;;498.63;476.53;;;;;;;;;;5012337;28;20935;-59
2022/03/12 09:39:46;;;;;;;532.57;507.47;;;;;;;;;;5029497;28;20422;-59
2022/03/12 09:42:12;;;;;;;541.23;516.63;;;;;;;;;;5031329;28;20404;-60
2022/03/12 09:44:38;;;;;;;548.73;523.03;;;;;;;;;;5031159;28;20525;-60
2022/03/12 09:47:04;;;;;;;592.37;565.37;;;;;;;;;;5031510;28;20888;-60
2022/03/12 09:49:33;;;;;;;591.87;566.23;;;;;;;;;;5031578;28;20786;-59
2022/03/12 09:51:59;;;;;;;626.63;599.93;;;;;;;;;;5030805;28;20481;-61
2022/03/12 09:54:27;;;;;;;601.43;576.93;;;;;;;;;;5031553;28;20447;-60
2022/03/12 09:56:54;;;;;;;406.70;391.87;;;;;;;;;;5031117;28;20441;-61
2022/03/12 09:59:20;;;;;;;602.30;577.73;;;;;;;;;;5031510;28;20388;-61
2022/03/12 10:01:46;;;;;;;648.47;621.97;;;;;;;;;;5031140;28;20801;-61
2022/03/12 10:04:12;;;;;;;607.87;583.23;;;;;;;;;;5031833;28;20455;-61
2022/03/12 10:06:40;;;;;;;631.97;606.23;;;;;;;;;;5031196;28;20418;-61
2022/03/12 10:09:06;;;;;;;630.80;605.40;;;;;;;;;;5031493;28;20765;-60
2022/03/12 10:11:33;;;;;;;625.73;600.13;;;;;;;;;;5031021;28;20458;-61
2022/03/12 10:13:59;;;;;;;662.73;635.13;;;;;;;;;;5030725;28;20431;-61
2022/03/12 10:16:25;;;;;;;666.97;639.37;;;;;;;;;;5030910;28;20415;-60
2022/03/12 10:18:52;;;;;;;668.60;640.87;;;;;;;;;;5031285;28;20475;-60
2022/03/12 10:21:18;;;;;;;651.90;624.90;;;;;;;;;;5030895;28;20414;-60
2022/03/12 10:23:44;;;;;;;667.70;639.97;;;;;;;;;;5031086;28;20520;-61
2022/03/12 10:26:10;;;;;;;653.07;625.93;;;;;;;;;;5030548;28;20403;-60
2022/03/12 10:28:36;;;;;;;622.23;596.47;;;;;;;;;;5031223;28;20389;-60
2022/03/12 10:31:07;;;;;;;585.30;561.53;;;;;;;;;;5030857;28;20409;-60
2022/03/12 10:33:33;;;;;;;659.07;630.77;;;;;;;;;;5031307;28;20932;-61
2022/03/12 10:36:16;;;;;;;645.83;617.73;;;;;;;;;;5030281;28;20412;-60
2022/03/12 10:38:43;;;;;;;631.20;603.83;;;;;;;;;;5028968;28;20918;-60
2022/03/12 10:41:10;;;;;;;661.83;633.57;;;;;;;;;;5030958;28;20423;-60
2022/03/12 10:43:43;;;;;;;624.93;598.83;;;;;;;;;;5031093;28;20526;-59
2022/03/12 10:46:10;;;;;;;673.67;644.17;;;;;;;;;;5031116;28;20394;-60
2022/03/12 10:48:39;;;;;;;681.63;651.13;;;;;;;;;;5030648;28;20418;-61
2022/03/12 10:51:05;;;;;;;398.83;384.43;;;;;;;;;;5030459;28;20415;-61
2022/03/12 10:53:31;;;;;;;450.20;433.37;;;;;;;;;;5030966;28;20985;-60
2022/03/12 10:55:58;;;;;;;312.10;301.87;;;;;;;;;;5030984;28;20415;-60
2022/03/12 10:58:26;;;;;;;185.03;179.33;;;;;;;;;;5014192;28;20456;-61
2022/03/12 11:00:53;;;;;;;272.10;263.40;;;;;;;;;;5010908;28;20424;-58
2022/03/12 11:03:20;;;;;;;314.50;304.10;;;;;;;;;;5011071;28;20439;-59
2022/03/12 11:05:47;;;;;;;290.20;280.70;;;;;;;;;;5011545;28;20385;-60
2022/03/12 11:08:32;;;;;;;299.03;289.13;;;;;;;;;;5013066;28;20753;-60
2022/03/12 11:11:06;;;;;;;208.93;202.60;;;;;;;;;;5014409;28;20815;-57
2022/03/12 11:13:40;;;;;;;216.20;209.57;;;;;;;;;;5014654;28;20518;-59
2022/03/12 11:16:14;;;;;;;347.47;335.30;;;;;;;;;;5014429;28;20416;-60
2022/03/12 11:18:52;;;;;;;548.50;526.60;;;;;;;;;;5014419;28;20392;-60
2022/03/12 11:21:26;;;;;;;637.70;610.27;;;;;;;;;;5013361;28;20871;-60
2022/03/12 11:23:54;;;;;;;606.93;580.83;;;;;;;;;;5014093;28;20465;-59
2022/03/12 11:26:20;;;;;;;634.23;605.00;;;;;;;;;;5013982;28;20493;-59
2022/03/12 11:28:55;;;;;;;619.33;592.17;;;;;;;;;;5014161;28;20410;-59
2022/03/12 11:31:37;;;;;;;643.50;615.10;;;;;;;;;;5013934;28;20454;-60
2022/03/12 11:34:12;;;;;;;634.53;606.00;;;;;;;;;;5013961;28;20472;-60
2022/03/12 11:36:41;;;;;;;664.60;633.27;;;;;;;;;;5012743;28;20431;-60
2022/03/12 11:39:07;;;;;;;654.50;623.30;;;;;;;;;;5013978;28;20406;-59
2022/03/12 11:41:37;;;;;;;646.83;616.67;;;;;;;;;;5013570;28;20428;-60
2022/03/12 11:44:07;;;;;;;625.77;595.97;;;;;;;;;;5013714;28;20467;-57
2022/03/12 11:46:33;;;;;;;589.57;563.10;;;;;;;;;;5013816;28;20475;-59
2022/03/12 11:48:59;;;;;;;586.50;560.50;;;;;;;;;;5013776;28;20409;-59
2022/03/12 11:51:25;;;;;;;622.67;592.90;;;;;;;;;;5013454;28;20459;-59
2022/03/12 11:53:53;;;;;;;578.13;550.83;;;;;;;;;;5013926;28;20931;-59
2022/03/12 11:56:20;;;;;;;607.40;575.50;;;;;;;;;;5013630;28;20853;-59
2022/03/12 11:58:46;;;;;;;611.87;579.17;;;;;;;;;;5013510;28;20500;-60
2022/03/12 12:01:20;;;;;;;612.77;579.47;;;;;;;;;;5013035;28;20413;-59
2022/03/12 12:03:46;;;;;;;609.27;576.50;;;;;;;;;;5013527;28;20472;-59
2022/03/12 12:06:11;;;;;;;599.83;568.17;;;;;;;;;;5013462;28;20413;-59
2022/03/12 12:08:38;;;;;;;608.30;576.13;;;;;;;;;;5013470;28;20424;-59
2022/03/12 12:11:04;;;;;;;622.87;588.07;;;;;;;;;;5013207;28;20412;-58
2022/03/12 12:13:31;;;;;;;628.67;594.07;;;;;;;;;;5013374;28;20513;-59
2022/03/12 12:15:58;;;;;;;640.17;604.03;;;;;;;;;;5013295;28;20408;-59
2022/03/12 12:18:24;;;;;;;623.87;587.30;;;;;;;;;;5013059;28;20492;-61
2022/03/12 12:20:50;;;;;;;621.57;585.53;;;;;;;;;;5013025;28;20491;-58
2022/03/12 12:23:20;;;;;;;623.77;586.17;;;;;;;;;;5013181;28;20409;-60
2022/03/12 12:25:46;;;;;;;629.20;592.50;;;;;;;;;;5013264;28;20455;-59
2022/03/12 12:28:17;;;;;;;615.23;581.80;;;;;;;;;;5012956;28;20408;-58
2022/03/12 12:30:44;;;;;;;602.97;565.73;;;;;;;;;;5012868;28;20409;-59
2022/03/12 12:33:14;;;;;;;580.23;542.93;;;;;;;;;;5013068;28;20780;-59
2022/03/12 12:35:40;;;;;;;559.13;524.23;;;;;;;;;;5013069;28;20459;-61
2022/03/12 12:38:08;;;;;;;508.67;475.27;;;;;;;;;;5013064;28;20803;-62
2022/03/12 12:40:36;;;;;;;510.90;476.17;;;;;;;;;;5012678;28;20491;-62
2022/03/12 12:43:09;;;;;;;490.60;455.73;;;;;;;;;;5012872;28;20420;-61
2022/03/12 12:45:38;;;;;;;441.90;408.40;;;;;;;;;;5012960;28;20460;-61
2022/03/12 12:48:08;;;;;;;418.97;387.00;;;;;;;;;;5012863;28;20409;-61
2022/03/12 12:50:34;;;;;;;416.93;383.93;;;;;;;;;;5012547;28;20895;-61
2022/03/12 12:53:14;;;;;;;394.13;366.30;;;;;;;;;;5012779;28;20400;-62
2022/03/12 12:55:41;;;;;;;373.00;344.50;;;;;;;;;;5012670;28;20404;-62
2022/03/12 12:58:07;;;;;;;367.80;336.40;;;;;;;;;;5012909;28;20412;-61
2022/03/12 13:00:34;;;;;;;363.40;336.20;;;;;;;;;;5012603;28;20900;-61
2022/03/12 13:03:00;;;;;;;342.30;315.40;;;;;;;;;;5012688;28;20401;-61
2022/03/12 13:05:46;;;;;;;354.83;328.10;;;;;;;;;;5012229;28;20469;-60
2022/03/12 13:08:13;;;;;;;347.60;319.13;;;;;;;;;;5012389;28;20410;-61
2022/03/12 13:10:39;;;;;;;351.43;322.83;;;;;;;;;;5012052;28;20424;-61
2022/03/12 13:13:09;;;;;;;316.97;289.13;;;;;;;;;;5012309;28;20401;-62
2022/03/12 13:15:39;;;;;;;314.43;285.77;;;;;;;;;;5010968;28;20420;-60
2022/03/12 13:18:20;;;;;;;313.20;284.40;;;;;;;;;;5012214;28;20409;-61
2022/03/12 13:20:50;;;;;;;327.90;302.03;;;;;;;;;;5011970;28;20459;-61
2022/03/12 13:23:21;;;;;;;302.33;284.03;;;;;;;;;;5012075;28;20416;-61
2022/03/12 13:25:53;;;;;;;299.73;275.33;;;;;;;;;;5012211;28;20431;-61
2022/03/12 13:28:35;;;;;;;324.77;296.13;;;;;;;;;;5012087;28;20441;-61
2022/03/12 13:31:22;;;;;;;306.13;278.13;;;;;;;;;;5010858;28;20408;-59
2022/03/12 13:33:56;;;;;;;319.93;292.90;;;;;;;;;;5011835;28;20435;-58
2022/03/12 13:36:23;;;;;;;300.43;277.23;;;;;;;;;;5012080;28;20495;-57
2022/03/12 13:38:51;;;;;;;303.93;280.43;;;;;;;;;;5011972;28;20409;-60
2022/03/12 13:41:18;;;;;;;294.57;272.47;;;;;;;;;;5011467;28;20417;-60
2022/03/12 13:43:44;;;;;;;301.33;279.43;;;;;;;;;;5011893;28;20510;-60
2022/03/12 13:46:12;;;;;;;288.20;270.03;;;;;;;;;;5012042;28;20416;-60
2022/03/12 13:48:38;;;;;;;264.40;247.00;;;;;;;;;;5011755;28;20419;-59
2022/03/12 13:51:04;;;;;;;80.47;77.27;;;;;;;;;;5011617;28;20807;-58
2022/03/12 13:53:30;;;;;;;63.63;61.13;;;;;;;;;;5012027;28;20475;-59
2022/03/12 13:56:10;;;;;;;45.77;44.17;;;;;;;;;;5011505;28;20408;-60
2022/03/12 13:58:41;;;;;;;17.13;16.70;;;;;;;;;;5010485;28;20409;-59
2022/03/12 14:01:09;;;;;;;10.63;10.43;;;;;;;;;;5011905;28;20418;-61
2022/03/12 14:03:44;;;;;;;13.07;12.77;;;;;;;;;;5011382;28;20879;-61
2022/03/12 14:06:10;;;;;;;8.80;8.60;;;;;;;;;;5011932;28;20904;-59
2022/03/12 14:08:45;;;;;;;7.53;7.33;;;;;;;;;;5011443;28;20413;-61